Time;durP1;ratioP1;P1;durP2;ratioP2;P2;SDS_P1;SDS_P2;PMS_P1;PMS_P2;Temp;Humidity;BMP_temperature;BMP_pressure;BME280_temperature;BME280_humidity;BME280_pressure;Samples;Min_cycle;Max_cycle;Signal;HPM_P1;HPM_P2
2023/12/28 00:01:45;;;;;;;;;;;;;;;-140.72;100.00;61886.31;5090270;28;19939;-73
2023/12/28 00:04:10;;;;;;;;;;;;;;;-140.72;100.00;61914.78;5086917;28;19929;-72
2023/12/28 00:06:35;;;;;;;;;;;;;;;-140.72;100.00;61924.97;5081823;28;19924;-73
2023/12/28 00:09:00;;;;;;;;;;;;;;;-140.72;100.00;61922.94;5088909;28;19920;-72
2023/12/28 00:11:26;;;;;;;;;;;;;;;-140.72;100.00;62016.50;5087335;28;19927;-72
2023/12/28 00:13:51;;;;;;;;;;;;;;;-140.72;100.00;62002.25;5087326;28;19916;-72
2023/12/28 00:16:16;;;;;;;;;;;;;;;-140.72;100.00;62036.84;5092016;28;19954;-72
2023/12/28 00:18:42;;;;;;;;;;;;;;;-140.72;100.00;62053.09;5092443;28;19924;-72
2023/12/28 00:21:07;;;;;;;;;;;;;;;-140.72;100.00;62095.81;5097900;28;20002;-72
2023/12/28 00:23:32;;;;;;;;;;;;;;;-140.72;100.00;62108.03;5079221;28;19931;-72
2023/12/28 00:25:58;;;;;;;;;;;;;;;-140.72;100.00;62089.72;5091156;28;19973;-72
2023/12/28 00:28:23;;;;;;;;;;;;;;;-140.72;100.00;62120.22;5071435;28;19992;-72
2023/12/28 00:30:48;;;;;;;;;;;;;;;-140.72;100.00;62142.59;5076771;28;19943;-72
2023/12/28 00:33:13;;;;;;;;;;;;;;;-140.72;100.00;62126.34;5083002;28;20278;-72
2023/12/28 00:35:39;;;;;;;;;;;;;;;-140.72;100.00;62134.47;5073815;28;20305;-72
2023/12/28 00:38:04;;;;;;;;;;;;;;;-140.72;100.00;62130.41;5070723;28;20001;-72
2023/12/28 00:40:29;;;;;;;;;;;;;;;-140.72;100.00;62146.66;5070322;28;19971;-72
2023/12/28 00:42:54;;;;;;;;;;;;;;;-140.72;100.00;62124.28;5093834;28;19966;-72
2023/12/28 00:45:20;;;;;;;;;;;;;;;-140.72;100.00;62108.03;5085840;28;20435;-72
2023/12/28 00:47:45;;;;;;;;;;;;;;;-140.72;100.00;62116.16;5090863;28;20372;-72
2023/12/28 00:50:16;;;;;;;;;;;;;;;-140.72;100.00;62124.28;5094856;28;19927;-73
2023/12/28 00:52:41;;;;;;;;;;;;;;;-140.72;100.00;62091.75;5084259;28;19955;-72
2023/12/28 00:55:07;;;;;;;;;;;;;;;-140.72;100.00;62120.22;5077435;28;20027;-72
2023/12/28 00:57:32;;;;;;;;;;;;;;;-140.72;100.00;62077.50;5079306;28;20014;-72
2023/12/28 00:59:58;;;;;;;;;;;;;;;-140.72;100.00;62099.88;5078182;28;20054;-77
2023/12/28 01:02:23;;;;;;;;;;;;;;;-140.72;100.00;62112.09;5069216;28;19927;-72
2023/12/28 01:04:48;;;;;;;;;;;;;;;-140.72;100.00;62132.44;5076926;28;20403;-72
2023/12/28 01:07:13;;;;;;;;;;;;;;;-140.72;100.00;62093.78;5098759;28;20311;-72
2023/12/28 01:09:39;;;;;;;;;;;;;;;-140.72;100.00;62059.22;5093305;28;19919;-72
2023/12/28 01:12:05;;;;;;;;;;;;;;;-140.72;100.00;62083.63;5091171;28;19920;-72
2023/12/28 01:14:30;;;;;;;;;;;;;;;-140.72;100.00;62024.63;5083373;28;19950;-72
2023/12/28 01:16:55;;;;;;;;;;;;;;;-140.72;100.00;62002.25;5081683;28;20283;-72
2023/12/28 01:19:21;;;;;;;;;;;;;;;-140.72;100.00;61994.13;5109494;28;20330;-72
2023/12/28 01:21:46;;;;;;;;;;;;;;;-140.72;100.00;62012.41;5097173;28;20281;-73
2023/12/28 01:24:11;;;;;;;;;;;;;;;-140.72;100.00;61981.91;5094767;28;20414;-72
2023/12/28 01:26:37;;;;;;;;;;;;;;;-140.72;100.00;61992.09;5100475;28;19955;-73
2023/12/28 01:29:03;;;;;;;;;;;;;;;-140.72;100.00;62022.59;5104601;28;20361;-72
2023/12/28 01:31:28;;;;;;;;;;;;;;;-140.72;100.00;62024.63;5080765;28;19916;-73
2023/12/28 01:33:53;;;;;;;;;;;;;;;-140.72;100.00;62069.38;5101747;28;19939;-73
2023/12/28 01:36:19;;;;;;;;;;;;;;;-140.72;100.00;62091.75;5077009;28;20405;-72
2023/12/28 01:38:45;;;;;;;;;;;;;;;-140.72;100.00;62085.66;5097166;28;20028;-72
2023/12/28 01:41:10;;;;;;;;;;;;;;;-140.72;100.00;62114.13;5094782;28;19928;-72
2023/12/28 01:43:35;;;;;;;;;;;;;;;-140.72;100.00;62089.72;5102070;28;19928;-72
2023/12/28 01:46:00;;;;;;;;;;;;;;;-140.72;100.00;62130.41;5089133;28;20310;-72
2023/12/28 01:48:26;;;;;;;;;;;;;;;-140.72;100.00;62116.16;5075782;28;19920;-72
2023/12/28 01:50:51;;;;;;;;;;;;;;;-140.72;100.00;62126.34;5077637;28;19920;-72
2023/12/28 01:53:17;;;;;;;;;;;;;;;-140.72;100.00;62110.06;5090193;28;19958;-72
2023/12/28 01:55:43;;;;;;;;;;;;;;;-140.72;100.00;62132.44;5091316;28;19955;-72
2023/12/28 01:58:08;;;;;;;;;;;;;;;-140.72;100.00;62110.06;5075717;28;19916;-72
2023/12/28 02:00:36;;;;;;;;;;;;;;;-140.72;100.00;62079.53;5076090;28;19985;-72
2023/12/28 02:03:02;;;;;;;;;;;;;;;-140.72;100.00;62083.63;5076167;28;19958;-72
2023/12/28 02:05:27;;;;;;;;;;;;;;;-140.72;100.00;62077.50;5103372;28;20239;-72
2023/12/28 02:07:52;;;;;;;;;;;;;;;-140.72;100.00;62055.13;5093021;28;20230;-72
2023/12/28 02:10:18;;;;;;;;;;;;;;;-140.72;100.00;62047.00;5075240;28;20250;-73
2023/12/28 02:12:43;;;;;;;;;;;;;;;-140.72;100.00;62036.84;5089103;28;19927;-73
2023/12/28 02:15:09;;;;;;;;;;;;;;;-140.72;100.00;62036.84;5076258;28;19924;-72
2023/12/28 02:17:47;;;;;;;;;;;;;;;-140.72;100.00;61994.13;5081841;28;19920;-73
2023/12/28 02:20:12;;;;;;;;;;;;;;;-140.72;100.00;62010.38;5095707;28;19944;-73
2023/12/28 02:22:40;;;;;;;;;;;;;;;-140.72;100.00;62022.59;5076294;28;20391;-72
2023/12/28 02:25:06;;;;;;;;;;;;;;;-140.72;100.00;62057.16;5092355;28;19920;-73
2023/12/28 02:27:32;;;;;;;;;;;;;;;-140.72;100.00;62026.66;5064892;28;19955;-73
2023/12/28 02:29:57;;;;;;;;;;;;;;;-140.72;100.00;62053.09;5108658;28;19941;-72
2023/12/28 02:32:27;;;;;;;;;;;;;;;-140.72;100.00;62049.03;5103964;28;19923;-72
2023/12/28 02:34:55;;;;;;;;;;;;;;;-140.72;100.00;62047.00;5098736;28;20409;-72
2023/12/28 02:37:21;;;;;;;;;;;;;;;-140.72;100.00;61996.16;5095509;28;20404;-72
2023/12/28 02:39:47;;;;;;;;;;;;;;;-140.72;100.00;62057.16;5078031;28;20022;-73
2023/12/28 02:42:12;;;;;;;;;;;;;;;-140.72;100.00;62049.03;5094388;28;19920;-72
2023/12/28 02:44:38;;;;;;;;;;;;;;;-140.72;100.00;61957.50;5102175;28;19920;-73
2023/12/28 02:47:03;;;;;;;;;;;;;;;-140.72;100.00;61990.03;5085643;28;19920;-73
2023/12/28 02:49:28;;;;;;;;;;;;;;;-140.72;100.00;61973.78;5078072;28;19925;-73
2023/12/28 02:51:53;;;;;;;;;;;;;;;-140.72;100.00;61963.59;5092635;28;19920;-73
2023/12/28 02:54:19;;;;;;;;;;;;;;;-140.72;100.00;61992.09;5095626;28;19920;-73
2023/12/28 02:56:44;;;;;;;;;;;;;;;-140.72;100.00;61947.34;5076402;28;19926;-74
2023/12/28 02:59:09;;;;;;;;;;;;;;;-140.72;100.00;61898.50;5097468;28;20301;-73
2023/12/28 03:01:34;;;;;;;;;;;;;;;-140.72;100.00;61896.47;5086828;28;20329;-73
2023/12/28 03:03:59;;;;;;;;;;;;;;;-140.72;100.00;61886.31;5084863;28;19985;-73
2023/12/28 03:06:25;;;;;;;;;;;;;;;-140.72;100.00;61861.91;5081349;28;20276;-73
2023/12/28 03:08:50;;;;;;;;;;;;;;;-140.72;100.00;61809.03;5073475;28;20282;-73
2023/12/28 03:11:16;;;;;;;;;;;;;;;-140.72;100.00;61774.44;5079986;28;19950;-73
2023/12/28 03:13:41;;;;;;;;;;;;;;;-140.72;100.00;61768.34;5071427;28;19969;-73
2023/12/28 03:16:07;;;;;;;;;;;;;;;-140.72;100.00;61745.97;5082049;28;20000;-73
2023/12/28 03:18:32;;;;;;;;;;;;;;;-140.72;100.00;61756.13;5093628;28;19920;-72
2023/12/28 03:20:57;;;;;;;;;;;;;;;-140.72;100.00;61733.78;5073999;28;19920;-73
2023/12/28 03:23:22;;;;;;;;;;;;;;;-140.72;100.00;61662.59;5079875;28;20015;-72
2023/12/28 03:25:48;;;;;;;;;;;;;;;-140.72;100.00;61703.25;5086172;28;19927;-73
2023/12/28 03:28:13;;;;;;;;;;;;;;;-140.72;100.00;61678.84;5090004;28;19927;-73
2023/12/28 03:30:39;;;;;;;;;;;;;;;-140.72;100.00;61640.22;5081632;28;20031;-73
2023/12/28 03:33:04;;;;;;;;;;;;;;;-140.72;100.00;61640.22;5093642;28;19920;-72
2023/12/28 03:35:29;;;;;;;;;;;;;;;-140.72;100.00;61615.81;5073443;28;19932;-73
2023/12/28 03:37:54;;;;;;;;;;;;;;;-140.72;100.00;61638.19;5096364;28;19926;-73
2023/12/28 03:40:20;;;;;;;;;;;;;;;-140.72;100.00;61628.00;5093194;28;20019;-73
2023/12/28 03:42:45;;;;;;;;;;;;;;;-140.72;100.00;61619.88;5097239;28;19923;-73
2023/12/28 03:45:10;;;;;;;;;;;;;;;-140.72;100.00;61615.81;5073830;28;19920;-73
2023/12/28 03:47:36;;;;;;;;;;;;;;;-140.72;100.00;61589.38;5073343;28;20102;-73
2023/12/28 03:50:02;;;;;;;;;;;;;;;-140.72;100.00;61632.06;5068051;28;19934;-73
2023/12/28 03:52:29;;;;;;;;;;;;;;;-140.72;100.00;61556.81;5094479;28;20361;-72
2023/12/28 03:54:55;;;;;;;;;;;;;;;-140.72;100.00;61601.56;5092084;28;19920;-73
2023/12/28 03:57:20;;;;;;;;;;;;;;;-140.72;100.00;61532.41;5067513;28;20061;-73
2023/12/28 03:59:47;;;;;;;;;;;;;;;-140.72;100.00;61548.69;5085042;28;20433;-73
2023/12/28 04:02:12;;;;;;;;;;;;;;;-140.72;100.00;61546.66;5093990;28;20362;-73
2023/12/28 04:04:37;;;;;;;;;;;;;;;-140.72;100.00;61508.00;5080028;28;19935;-73
2023/12/28 04:07:03;;;;;;;;;;;;;;;-140.72;100.00;61499.88;5086049;28;20379;-73
2023/12/28 04:09:28;;;;;;;;;;;;;;;-140.72;100.00;61475.47;5072362;28;19951;-73
2023/12/28 04:11:53;;;;;;;;;;;;;;;-140.72;100.00;61440.91;5102051;28;19951;-73
2023/12/28 04:14:18;;;;;;;;;;;;;;;-140.72;100.00;61408.34;5066232;28;19935;-72
2023/12/28 04:16:44;;;;;;;;;;;;;;;-140.72;100.00;61310.75;5102137;28;19960;-72
2023/12/28 04:19:09;;;;;;;;;;;;;;;-140.72;100.00;61294.47;5078238;28;19924;-73
2023/12/28 04:21:34;;;;;;;;;;;;;;;-140.72;100.00;61215.16;5087028;28;20256;-72
2023/12/28 04:24:00;;;;;;;;;;;;;;;-140.72;100.00;61168.38;5093986;28;20370;-73
2023/12/28 04:26:25;;;;;;;;;;;;;;;-140.72;100.00;61117.53;5083672;28;19965;-72
2023/12/28 04:28:50;;;;;;;;;;;;;;;-140.72;100.00;61056.53;5076364;28;19917;-71
2023/12/28 04:31:16;;;;;;;;;;;;;;;-140.72;100.00;61015.88;5085517;28;19974;-72
2023/12/28 04:33:41;;;;;;;;;;;;;;;-140.72;100.00;60948.75;5082028;28;20408;-71
2023/12/28 04:36:06;;;;;;;;;;;;;;;-140.72;100.00;60895.88;5105328;28;19963;-72
2023/12/28 04:38:32;;;;;;;;;;;;;;;-140.72;100.00;60834.88;5086150;28;20009;-72
2023/12/28 04:41:00;;;;;;;;;;;;;;;-140.72;100.00;60796.25;5095766;28;19947;-73
2023/12/28 04:43:26;;;;;;;;;;;;;;;-140.72;100.00;60796.25;5071048;28;20389;-74
2023/12/28 04:45:51;;;;;;;;;;;;;;;-140.72;100.00;60712.88;5088208;28;19928;-73
2023/12/28 04:48:20;;;;;;;;;;;;;;;-140.72;100.00;60686.44;5076709;28;19920;-73
2023/12/28 04:50:46;;;;;;;;;;;;;;;-140.72;100.00;60647.81;5076571;28;19928;-73
2023/12/28 04:53:11;;;;;;;;;;;;;;;-140.72;100.00;60629.50;5073426;28;19920;-73
2023/12/28 04:55:39;;;;;;;;;;;;;;;-140.72;100.00;60531.91;5101335;28;19920;-72
2023/12/28 04:58:05;;;;;;;;;;;;;;;-140.72;100.00;60515.66;5084228;28;19928;-72
2023/12/28 05:00:30;;;;;;;;;;;;;;;-140.72;100.00;60485.16;5096492;28;20023;-73
2023/12/28 05:02:55;;;;;;;;;;;;;;;-140.72;100.00;60450.59;5099436;28;19916;-71
2023/12/28 05:05:20;;;;;;;;;;;;;;;-140.72;100.00;60446.53;5098970;28;20341;-72
2023/12/28 05:07:45;;;;;;;;;;;;;;;-140.72;100.00;60413.97;5077822;28;20333;-73
2023/12/28 05:10:11;;;;;;;;;;;;;;;-140.72;100.00;60383.50;5073358;28;20431;-73
2023/12/28 05:12:36;;;;;;;;;;;;;;;-140.72;100.00;60373.31;5072591;28;19927;-72
2023/12/28 05:15:01;;;;;;;;;;;;;;;-140.72;100.00;60332.66;5091744;28;19979;-72
2023/12/28 05:17:26;;;;;;;;;;;;;;;-140.72;100.00;60399.75;5087000;28;19916;-73
2023/12/28 05:19:52;;;;;;;;;;;;;;;-140.72;100.00;60357.06;5096789;28;19916;-73
2023/12/28 05:22:17;;;;;;;;;;;;;;;-140.72;100.00;60320.47;5085704;28;19920;-71
2023/12/28 05:24:42;;;;;;;;;;;;;;;-140.72;100.00;60310.28;5079420;28;19966;-71
2023/12/28 05:27:07;;;;;;;;;;;;;;;-140.72;100.00;60294.03;5092555;28;19926;-72
2023/12/28 05:29:32;;;;;;;;;;;;;;;-140.72;100.00;60344.84;5081148;28;19916;-72
2023/12/28 05:31:58;;;;;;;;;;;;;;;-140.72;100.00;60277.75;5087792;28;19995;-71
2023/12/28 05:34:23;;;;;;;;;;;;;;;-140.72;100.00;60285.91;5091407;28;19917;-72
2023/12/28 05:36:48;;;;;;;;;;;;;;;-140.72;100.00;60267.59;5093343;28;20342;-73
2023/12/28 05:39:14;;;;;;;;;;;;;;;-140.72;100.00;60269.63;5094553;28;20373;-72
2023/12/28 05:41:40;;;;;;;;;;;;;;;-140.72;100.00;60259.47;5088947;28;20320;-72
2023/12/28 05:44:05;;;;;;;;;;;;;;;-140.72;100.00;60235.06;5086755;28;19916;-72
2023/12/28 05:46:30;;;;;;;;;;;;;;;-140.72;100.00;60231.00;5087617;28;19924;-73
2023/12/28 05:48:55;;;;;;;;;;;;;;;-140.72;100.00;60186.28;5087964;28;20020;-72
2023/12/28 05:51:21;;;;;;;;;;;;;;;-140.72;100.00;60172.03;5088118;28;20361;-73
2023/12/28 05:53:46;;;;;;;;;;;;;;;-140.72;100.00;60145.59;5081604;28;20396;-76
2023/12/28 05:56:11;;;;;;;;;;;;;;;-140.72;100.00;60186.28;5069683;28;19917;-72
2023/12/28 05:58:38;;;;;;;;;;;;;;;-140.72;100.00;60104.94;5085466;28;20334;-73
2023/12/28 06:01:04;;;;;;;;;;;;;;;-140.72;100.00;60098.84;5090772;28;19964;-73
2023/12/28 06:03:30;;;;;;;;;;;;;;;-140.72;100.00;60096.81;5081806;28;19923;-75
2023/12/28 06:05:55;;;;;;;;;;;;;;;-140.72;100.00;60068.34;5094237;28;20299;-73
2023/12/28 06:08:20;;;;;;;;;;;;;;;-140.72;100.00;60046.00;5092451;28;19920;-75
2023/12/28 06:10:46;;;;;;;;;;;;;;;-140.72;100.00;60021.59;5095887;28;19938;-76
2023/12/28 06:13:11;;;;;;;;;;;;;;;-140.72;100.00;60043.97;5093285;28;19927;-75
2023/12/28 06:15:36;;;;;;;;;;;;;;;-140.72;100.00;60033.78;5067361;28;19927;-76
2023/12/28 06:18:02;;;;;;;;;;;;;;;-140.72;100.00;59987.03;5091054;28;20240;-75
2023/12/28 06:20:28;;;;;;;;;;;;;;;-140.72;100.00;59956.53;5077623;28;19967;-73
2023/12/28 06:22:53;;;;;;;;;;;;;;;-140.72;100.00;59950.44;5081738;28;20359;-74
2023/12/28 06:25:18;;;;;;;;;;;;;;;-140.72;100.00;59978.91;5089240;28;19916;-72
2023/12/28 06:27:43;;;;;;;;;;;;;;;-140.72;100.00;59962.63;5094865;28;19927;-72
2023/12/28 06:30:09;;;;;;;;;;;;;;;-140.72;100.00;59966.69;5091070;28;19930;-73
2023/12/28 06:32:34;;;;;;;;;;;;;;;-140.72;100.00;59960.59;5084938;28;19973;-73
2023/12/28 06:34:59;;;;;;;;;;;;;;;-140.72;100.00;59930.09;5092867;28;19942;-75
2023/12/28 06:37:25;;;;;;;;;;;;;;;-140.72;100.00;59960.59;5088141;28;19931;-72
2023/12/28 06:39:51;;;;;;;;;;;;;;;-140.72;100.00;59964.66;5095923;28;19947;-72
2023/12/28 06:42:16;;;;;;;;;;;;;;;-140.72;100.00;59944.34;5075365;28;19920;-75
2023/12/28 06:44:41;;;;;;;;;;;;;;;-140.72;100.00;59952.47;5095451;28;19928;-72
2023/12/28 06:47:06;;;;;;;;;;;;;;;-140.72;100.00;59946.38;5092922;28;19927;-72
2023/12/28 06:49:31;;;;;;;;;;;;;;;-140.72;100.00;59987.03;5103636;28;19938;-72
2023/12/28 06:51:57;;;;;;;;;;;;;;;-140.72;100.00;59978.91;5076399;28;19920;-72
2023/12/28 06:54:22;;;;;;;;;;;;;;;-140.72;100.00;60027.69;5076491;28;20289;-72
2023/12/28 06:56:47;;;;;;;;;;;;;;;-140.72;100.00;60056.16;5067583;28;20365;-72
2023/12/28 06:59:13;;;;;;;;;;;;;;;-140.72;100.00;60092.75;5087090;28;19916;-74
2023/12/28 07:01:39;;;;;;;;;;;;;;;-140.72;100.00;60060.22;5072669;28;20058;-73
2023/12/28 07:04:04;;;;;;;;;;;;;;;-140.72;100.00;60125.28;5080629;28;20373;-73
2023/12/28 07:06:29;;;;;;;;;;;;;;;-140.72;100.00;60119.19;5072702;28;20027;-73
2023/12/28 07:08:54;;;;;;;;;;;;;;;-140.72;100.00;60145.59;5073711;28;19916;-72
2023/12/28 07:11:20;;;;;;;;;;;;;;;-140.72;100.00;60139.50;5072129;28;19940;-71
2023/12/28 07:13:45;;;;;;;;;;;;;;;-140.72;100.00;60149.69;5079824;28;19936;-71
2023/12/28 07:16:10;;;;;;;;;;;;;;;-140.72;100.00;60170.00;5088283;28;19924;-72
2023/12/28 07:18:35;;;;;;;;;;;;;;;-140.72;100.00;60186.28;5079455;28;19920;-73
2023/12/28 07:21:01;;;;;;;;;;;;;;;-140.72;100.00;60149.69;5071566;28;19920;-72
2023/12/28 07:23:27;;;;;;;;;;;;;;;-140.72;100.00;60170.00;5076538;28;20275;-74
2023/12/28 07:25:53;;;;;;;;;;;;;;;-140.72;100.00;60186.28;5062979;28;20382;-76
2023/12/28 07:28:18;;;;;;;;;;;;;;;-140.72;100.00;60159.84;5067596;28;19951;-75
2023/12/28 07:30:44;;;;;;;;;;;;;;;-140.72;100.00;60143.56;5072436;28;19921;-75
2023/12/28 07:33:09;;;;;;;;;;;;;;;-140.72;100.00;60161.88;5065257;28;20275;-72
2023/12/28 07:35:34;;;;;;;;;;;;;;;-140.72;100.00;60145.59;5065974;28;19962;-73
2023/12/28 07:37:59;;;;;;;;;;;;;;;-140.72;100.00;60129.34;5060090;28;20270;-73
2023/12/28 07:40:25;;;;;;;;;;;;;;;-140.72;100.00;60167.97;5078576;28;20325;-72
2023/12/28 07:42:50;;;;;;;;;;;;;;;-140.72;100.00;60174.06;5065808;28;19931;-72
2023/12/28 07:45:17;;;;;;;;;;;;;;;-140.72;100.00;60139.50;5098665;28;19920;-72
2023/12/28 07:47:42;;;;;;;;;;;;;;;-140.72;100.00;60125.28;5085912;28;19916;-73
2023/12/28 07:50:08;;;;;;;;;;;;;;;-140.72;100.00;60161.88;5079272;28;19965;-73
2023/12/28 07:52:33;;;;;;;;;;;;;;;-140.72;100.00;60157.81;5064342;28;19933;-73
2023/12/28 07:54:59;;;;;;;;;;;;;;;-140.72;100.00;60174.06;5068615;28;19920;-73
2023/12/28 07:57:24;;;;;;;;;;;;;;;-140.72;100.00;60139.50;5066839;28;19920;-73
2023/12/28 07:59:49;;;;;;;;;;;;;;;-140.72;100.00;60167.97;5073608;28;19990;-73
2023/12/28 08:02:14;;;;;;;;;;;;;;;-140.72;100.00;60212.69;5070286;28;19920;-73
2023/12/28 08:04:40;;;;;;;;;;;;;;;-140.72;100.00;60182.22;5078107;28;19932;-73
2023/12/28 08:07:06;;;;;;;;;;;;;;;-140.72;100.00;60224.91;5070693;28;19981;-73
2023/12/28 08:09:32;;;;;;;;;;;;;;;-140.72;100.00;60224.91;5071499;28;19927;-73
2023/12/28 08:11:57;;;;;;;;;;;;;;;-140.72;100.00;60198.47;5070923;28;19921;-73
2023/12/28 08:14:22;;;;;;;;;;;;;;;-140.72;100.00;60172.03;5086437;28;19920;-73
2023/12/28 08:16:48;;;;;;;;;;;;;;;-140.72;100.00;60239.13;5079869;28;20500;-73
2023/12/28 08:19:13;;;;;;;;;;;;;;;-140.72;100.00;60214.72;5074064;28;19998;-73
2023/12/28 08:21:38;;;;;;;;;;;;;;;-140.72;100.00;60224.91;5071321;28;19985;-73
2023/12/28 08:24:03;;;;;;;;;;;;;;;-140.72;100.00;60251.34;5076150;28;19923;-73
2023/12/28 08:26:29;;;;;;;;;;;;;;;-140.72;100.00;60277.75;5068679;28;19931;-73
2023/12/28 08:28:54;;;;;;;;;;;;;;;-140.72;100.00;60281.81;5073531;28;19917;-74
2023/12/28 08:31:19;;;;;;;;;;;;;;;-140.72;100.00;60249.28;5065735;28;19931;-73
2023/12/28 08:33:44;;;;;;;;;;;;;;;-140.72;100.00;60239.13;5070991;28;19916;-73
2023/12/28 08:36:11;;;;;;;;;;;;;;;-140.72;100.00;60271.66;5073573;28;19979;-73
2023/12/28 08:38:36;;;;;;;;;;;;;;;-140.72;100.00;60224.91;5071376;28;19916;-75
2023/12/28 08:41:03;;;;;;;;;;;;;;;-140.72;100.00;60218.81;5072996;28;19947;-73
2023/12/28 08:43:28;;;;;;;;;;;;;;;-140.72;100.00;60226.94;5074048;28;19920;-75
2023/12/28 08:45:54;;;;;;;;;;;;;;;-140.72;100.00;60196.44;5075685;28;19924;-73
2023/12/28 08:48:20;;;;;;;;;;;;;;;-140.72;100.00;60165.94;5073860;28;19924;-75
2023/12/28 08:50:45;;;;;;;;;;;;;;;-140.72;100.00;60170.00;5077782;28;19927;-74
2023/12/28 08:53:10;;;;;;;;;;;;;;;-140.72;100.00;60170.00;5076513;28;19967;-74
2023/12/28 08:55:36;;;;;;;;;;;;;;;-140.72;100.00;60139.50;5086601;28;20017;-74
2023/12/28 08:58:01;;;;;;;;;;;;;;;-140.72;100.00;60161.88;5075707;28;19928;-74
2023/12/28 09:00:27;;;;;;;;;;;;;;;-140.72;100.00;60178.13;5072996;28;19966;-74
2023/12/28 09:02:52;;;;;;;;;;;;;;;-140.72;100.00;60192.38;5069836;28;19942;-74
2023/12/28 09:05:17;;;;;;;;;;;;;;;-140.72;100.00;60141.53;5084899;28;19925;-74
2023/12/28 09:07:43;;;;;;;;;;;;;;;-140.72;100.00;60174.06;5079962;28;20442;-74
2023/12/28 09:10:11;;;;;;;;;;;;;;;-140.72;100.00;60141.53;5085008;28;20370;-75
2023/12/28 09:12:37;;;;;;;;;;;;;;;-140.72;100.00;60137.47;5067181;28;19940;-73
2023/12/28 09:15:05;;;;;;;;;;;;;;;-140.72;100.00;60131.38;5091406;28;19924;-74
2023/12/28 09:17:30;;;;;;;;;;;;;;;-140.72;100.00;60123.25;5075201;28;20347;-76
2023/12/28 09:19:55;;;;;;;;;;;;;;;-140.72;100.00;60072.41;5092928;28;19916;-73
2023/12/28 09:22:20;;;;;;;;;;;;;;;-140.72;100.00;60066.31;5078694;28;19928;-76
2023/12/28 09:24:45;;;;;;;;;;;;;;;-140.72;100.00;60033.78;5079817;28;19924;-74
2023/12/28 09:27:11;;;;;;;;;;;;;;;-140.72;100.00;59995.16;5074599;28;19928;-74
2023/12/28 09:29:36;;;;;;;;;;;;;;;-140.72;100.00;59997.19;5089368;28;19916;-73
2023/12/28 09:32:02;;;;;;;;;;;;;;;-140.72;100.00;59987.03;5097762;28;19927;-74
2023/12/28 09:34:27;;;;;;;;;;;;;;;-140.72;100.00;59952.47;5093137;28;19923;-74
2023/12/28 09:36:52;;;;;;;;;;;;;;;-140.72;100.00;60005.31;5080002;28;20261;-74
2023/12/28 09:39:17;;;;;;;;;;;;;;;-140.72;100.00;59985.00;5084145;28;19924;-75
2023/12/28 09:41:44;;;;;;;;;;;;;;;-140.72;100.00;60074.44;5094320;28;19955;-75
2023/12/28 09:44:11;;;;;;;;;;;;;;;-140.72;100.00;60143.56;5075203;28;20185;-75
2023/12/28 09:46:38;;;;;;;;;;;;;;;-140.72;100.00;60214.72;5093900;28;19955;-74
2023/12/28 09:49:04;;;;;;;;;;;;;;;-140.72;100.00;60251.34;5102330;28;19924;-74
2023/12/28 09:51:31;;;;;;;;;;;;;;;-140.72;100.00;60247.25;5098289;28;19970;-72
2023/12/28 09:57:00;;;;;;;;;;;;;;;-140.72;100.00;60192.38;5091619;28;20426;-73
2023/12/28 09:59:26;;;;;;;;;;;;;;;-140.72;100.00;60159.84;5091551;28;19920;-73
2023/12/28 10:01:53;;;;;;;;;;;;;;;-140.72;100.00;60109.00;5095509;28;19927;-74
2023/12/28 10:04:19;;;;;;;;;;;;;;;-140.72;100.00;60092.75;5078424;28;19916;-74
2023/12/28 10:06:45;;;;;;;;;;;;;;;-140.72;100.00;59970.78;5072233;28;20008;-73
2023/12/28 10:09:10;;;;;;;;;;;;;;;-140.72;100.00;59944.34;5077239;28;19955;-73
2023/12/28 10:11:36;;;;;;;;;;;;;;;-140.72;100.00;59881.31;5091403;28;19938;-73
2023/12/28 10:14:02;;;;;;;;;;;;;;;-140.72;100.00;59840.66;5098989;28;20024;-74
2023/12/28 10:16:27;;;;;;;;;;;;;;;-140.72;100.00;59795.94;5093393;28;20449;-74
2023/12/28 10:18:52;;;;;;;;;;;;;;;-140.72;100.00;59751.22;5080280;28;19916;-73
2023/12/28 10:21:17;;;;;;;;;;;;;;;-140.72;100.00;59773.56;5075654;28;19946;-75
2023/12/28 10:23:43;;;;;;;;;;;;;;;-140.72;100.00;59749.19;5074018;28;19928;-73
2023/12/28 10:26:08;;;;;;;;;;;;;;;-140.72;100.00;59779.66;5075721;28;19920;-75
2023/12/28 10:28:39;;;;;;;;;;;;;;;-140.72;100.00;59783.75;5086427;28;20687;-76
2023/12/28 10:31:05;;;;;;;;;;;;;;;-140.72;100.00;59739.00;5082389;28;19928;-76
2023/12/28 10:33:37;;;;;;;;;;;;;;;-140.72;100.00;59734.94;5085628;28;19920;-75
2023/12/28 10:36:06;;;;;;;;;;;;;;;-140.72;100.00;59775.59;5084272;28;19927;-75
2023/12/28 10:38:36;;;;;;;;;;;;;;;-140.72;100.00;59767.47;5094933;28;19970;-78
2023/12/28 10:41:02;;;;;;;;;;;;;;;-140.72;100.00;59751.22;5088254;28;20010;-76
2023/12/28 10:43:28;;;;;;;;;;;;;;;-140.72;100.00;59706.50;5078306;28;19920;-76
2023/12/28 10:45:54;;;;;;;;;;;;;;;-140.72;100.00;59745.09;5081155;28;19942;-75
2023/12/28 10:48:28;;;;;;;;;;;;;;;-140.72;100.00;59751.22;5073044;28;19931;-75
2023/12/28 10:50:53;;;;;;;;;;;;;;;-140.72;100.00;59710.56;5080815;28;20369;-75
2023/12/28 10:53:18;;;;;;;;;;;;;;;-140.72;100.00;59728.84;5087359;28;19985;-75
2023/12/28 10:55:49;;;;;;;;;;;;;;;-140.72;100.00;59730.88;5090442;28;20432;-76
2023/12/28 10:58:19;;;;;;;;;;;;;;;-140.72;100.00;59741.03;5090483;28;20265;-76
2023/12/28 11:00:49;;;;;;;;;;;;;;;-140.72;100.00;59745.09;5089070;28;19920;-76
2023/12/28 11:03:18;;;;;;;;;;;;;;;-140.72;100.00;59769.50;5077382;28;20304;-75
2023/12/28 11:05:45;;;;;;;;;;;;;;;-140.72;100.00;59765.44;5101837;28;19942;-75
2023/12/28 11:08:11;;;;;;;;;;;;;;;-140.72;100.00;59802.03;5073253;28;19924;-77
2023/12/28 11:10:37;;;;;;;;;;;;;;;-140.72;100.00;59820.31;5099886;28;20289;-74
2023/12/28 11:13:03;;;;;;;;;;;;;;;-140.72;100.00;59802.03;5080508;28;19921;-74
2023/12/28 11:15:29;;;;;;;;;;;;;;;-140.72;100.00;59822.34;5087936;28;19927;-74
2023/12/28 11:17:55;;;;;;;;;;;;;;;-140.72;100.00;59850.81;5083181;28;20296;-74
2023/12/28 11:20:20;;;;;;;;;;;;;;;-140.72;100.00;59893.50;5077552;28;20003;-75
2023/12/28 11:22:46;;;;;;;;;;;;;;;-140.72;100.00;59844.72;5075960;28;20263;-76
2023/12/28 11:25:18;;;;;;;;;;;;;;;-140.72;100.00;59836.59;5065240;28;19920;-73
2023/12/28 11:27:43;;;;;;;;;;;;;;;-140.72;100.00;59840.66;5085568;28;19932;-74
2023/12/28 11:30:10;;;;;;;;;;;;;;;-140.72;100.00;59804.06;5082995;28;19942;-75
2023/12/28 11:32:35;;;;;;;;;;;;;;;-140.72;100.00;59763.41;5072688;28;19920;-73
2023/12/28 11:35:01;;;;;;;;;;;;;;;-140.72;100.00;59739.00;5093991;28;19943;-73
2023/12/28 11:37:27;;;;;;;;;;;;;;;-140.72;100.00;59667.88;5075190;28;20065;-74
2023/12/28 11:39:52;;;;;;;;;;;;;;;-140.72;100.00;59635.34;5094304;28;19927;-74
2023/12/28 11:42:22;;;;;;;;;;;;;;;-140.72;100.00;59647.53;5076754;28;20014;-75
2023/12/28 11:44:49;;;;;;;;;;;;;;;-140.72;100.00;59629.25;5082159;28;19931;-73
2023/12/28 11:47:16;;;;;;;;;;;;;;;-140.72;100.00;59590.63;5075353;28;19931;-73
2023/12/28 11:49:41;;;;;;;;;;;;;;;-140.72;100.00;59533.69;5066127;28;19920;-74
2023/12/28 11:52:07;;;;;;;;;;;;;;;-140.72;100.00;59466.63;5078544;28;19944;-74
2023/12/28 11:54:32;;;;;;;;;;;;;;;-140.72;100.00;59419.88;5086631;28;19927;-74
2023/12/28 11:56:57;;;;;;;;;;;;;;;-140.72;100.00;59340.59;5084185;28;19943;-74
2023/12/28 11:59:23;;;;;;;;;;;;;;;-140.72;100.00;59326.34;5077058;28;19928;-72
2023/12/28 12:01:52;;;;;;;;;;;;;;;-140.72;100.00;59273.50;5073254;28;19920;-74
2023/12/28 12:04:18;;;;;;;;;;;;;;;-140.72;100.00;59320.25;5095072;28;19920;-74
2023/12/28 12:06:44;;;;;;;;;;;;;;;-140.72;100.00;59287.75;5084829;28;19939;-74
2023/12/28 12:09:10;;;;;;;;;;;;;;;-140.72;100.00;59236.91;5086759;28;20077;-74
2023/12/28 12:11:37;;;;;;;;;;;;;;;-140.72;100.00;59238.97;5090434;28;19924;-75
2023/12/28 12:14:05;;;;;;;;;;;;;;;-140.72;100.00;59267.41;5085467;28;19960;-74